sensor_id;sensor_type;location;lat;lon;timestamp;P1;durP1;ratioP1;P2;durP2;ratioP2
9310;SDS011;4694;52.464;13.480;2024-03-06T00:02:00;46.53;;;20.70;;
9310;SDS011;4694;52.464;13.480;2024-03-06T00:04:27;36.58;;;20.75;;
9310;SDS011;4694;52.464;13.480;2024-03-06T00:06:55;41.50;;;22.20;;
9310;SDS011;4694;52.464;13.480;2024-03-06T00:09:24;49.45;;;24.20;;
9310;SDS011;4694;52.464;13.480;2024-03-06T00:11:51;43.33;;;22.92;;
9310;SDS011;4694;52.464;13.480;2024-03-06T00:14:18;38.85;;;20.80;;
9310;SDS011;4694;52.464;13.480;2024-03-06T00:16:46;39.40;;;23.08;;
9310;SDS011;4694;52.464;13.480;2024-03-06T00:19:15;38.78;;;21.63;;
9310;SDS011;4694;52.464;13.480;2024-03-06T00:21:41;43.47;;;21.90;;
9310;SDS011;4694;52.464;13.480;2024-03-06T00:24:08;35.45;;;19.73;;
9310;SDS011;4694;52.464;13.480;2024-03-06T00:26:40;42.80;;;21.63;;
9310;SDS011;4694;52.464;13.480;2024-03-06T00:29:07;33.72;;;20.25;;
9310;SDS011;4694;52.464;13.480;2024-03-06T00:31:35;39.10;;;20.23;;
9310;SDS011;4694;52.464;13.480;2024-03-06T00:34:01;43.53;;;20.45;;
9310;SDS011;4694;52.464;13.480;2024-03-06T00:36:28;43.03;;;22.05;;
9310;SDS011;4694;52.464;13.480;2024-03-06T00:38:55;40.75;;;21.60;;
9310;SDS011;4694;52.464;13.480;2024-03-06T00:41:21;34.60;;;19.58;;
9310;SDS011;4694;52.464;13.480;2024-03-06T00:43:50;45.15;;;22.85;;
9310;SDS011;4694;52.464;13.480;2024-03-06T00:46:16;38.20;;;21.60;;
9310;SDS011;4694;52.464;13.480;2024-03-06T00:48:43;40.55;;;21.67;;
9310;SDS011;4694;52.464;13.480;2024-03-06T00:51:09;41.85;;;23.10;;
9310;SDS011;4694;52.464;13.480;2024-03-06T00:53:37;43.65;;;22.05;;
9310;SDS011;4694;52.464;13.480;2024-03-06T00:56:04;42.88;;;20.02;;
9310;SDS011;4694;52.464;13.480;2024-03-06T00:58:31;46.45;;;22.60;;
9310;SDS011;4694;52.464;13.480;2024-03-06T01:00:59;38.42;;;20.80;;
9310;SDS011;4694;52.464;13.480;2024-03-06T01:03:26;39.83;;;22.10;;
9310;SDS011;4694;52.464;13.480;2024-03-06T01:05:52;43.35;;;22.10;;
9310;SDS011;4694;52.464;13.480;2024-03-06T01:08:20;45.60;;;22.77;;
9310;SDS011;4694;52.464;13.480;2024-03-06T01:10:49;39.33;;;21.93;;
9310;SDS011;4694;52.464;13.480;2024-03-06T01:13:16;45.25;;;23.88;;
9310;SDS011;4694;52.464;13.480;2024-03-06T01:15:43;47.22;;;26.80;;
9310;SDS011;4694;52.464;13.480;2024-03-06T01:18:11;38.78;;;23.13;;
9310;SDS011;4694;52.464;13.480;2024-03-06T01:20:38;43.28;;;22.10;;
9310;SDS011;4694;52.464;13.480;2024-03-06T01:23:05;42.92;;;22.98;;
9310;SDS011;4694;52.464;13.480;2024-03-06T01:25:32;45.17;;;21.98;;
9310;SDS011;4694;52.464;13.480;2024-03-06T01:27:59;45.28;;;22.45;;
9310;SDS011;4694;52.464;13.480;2024-03-06T01:30:25;39.47;;;24.15;;
9310;SDS011;4694;52.464;13.480;2024-03-06T01:32:52;48.17;;;24.88;;
9310;SDS011;4694;52.464;13.480;2024-03-06T01:35:20;48.10;;;24.02;;
9310;SDS011;4694;52.464;13.480;2024-03-06T01:37:48;47.28;;;23.23;;
9310;SDS011;4694;52.464;13.480;2024-03-06T01:40:15;50.88;;;27.58;;
9310;SDS011;4694;52.464;13.480;2024-03-06T01:42:42;54.47;;;24.58;;
9310;SDS011;4694;52.464;13.480;2024-03-06T01:45:08;53.88;;;25.85;;
9310;SDS011;4694;52.464;13.480;2024-03-06T01:47:35;44.72;;;24.38;;
9310;SDS011;4694;52.464;13.480;2024-03-06T01:50:02;43.03;;;23.75;;
9310;SDS011;4694;52.464;13.480;2024-03-06T01:52:32;48.97;;;25.05;;
9310;SDS011;4694;52.464;13.480;2024-03-06T01:54:59;42.55;;;21.70;;
9310;SDS011;4694;52.464;13.480;2024-03-06T01:57:25;49.92;;;23.60;;
9310;SDS011;4694;52.464;13.480;2024-03-06T01:59:52;46.95;;;24.45;;
9310;SDS011;4694;52.464;13.480;2024-03-06T02:02:19;46.08;;;26.65;;
9310;SDS011;4694;52.464;13.480;2024-03-06T02:04:46;43.60;;;26.08;;
9310;SDS011;4694;52.464;13.480;2024-03-06T02:07:13;43.88;;;23.83;;
9310;SDS011;4694;52.464;13.480;2024-03-06T02:09:43;43.60;;;25.30;;
9310;SDS011;4694;52.464;13.480;2024-03-06T02:12:10;42.58;;;23.27;;
9310;SDS011;4694;52.464;13.480;2024-03-06T02:14:36;43.80;;;22.60;;
9310;SDS011;4694;52.464;13.480;2024-03-06T02:17:03;48.67;;;23.77;;
9310;SDS011;4694;52.464;13.480;2024-03-06T02:19:37;46.38;;;22.25;;
9310;SDS011;4694;52.464;13.480;2024-03-06T02:22:06;45.92;;;23.20;;
9310;SDS011;4694;52.464;13.480;2024-03-06T02:24:33;41.95;;;21.55;;
9310;SDS011;4694;52.464;13.480;2024-03-06T02:26:59;49.53;;;24.50;;
9310;SDS011;4694;52.464;13.480;2024-03-06T02:29:26;46.33;;;22.00;;
9310;SDS011;4694;52.464;13.480;2024-03-06T02:31:53;36.65;;;22.30;;
9310;SDS011;4694;52.464;13.480;2024-03-06T02:34:19;46.63;;;23.60;;
9310;SDS011;4694;52.464;13.480;2024-03-06T02:36:46;44.17;;;23.98;;
9310;SDS011;4694;52.464;13.480;2024-03-06T02:39:14;36.17;;;21.75;;
9310;SDS011;4694;52.464;13.480;2024-03-06T02:41:41;47.22;;;24.63;;
9310;SDS011;4694;52.464;13.480;2024-03-06T02:44:07;43.28;;;25.17;;
9310;SDS011;4694;52.464;13.480;2024-03-06T02:46:34;44.08;;;23.08;;
9310;SDS011;4694;52.464;13.480;2024-03-06T02:49:01;52.75;;;24.25;;
9310;SDS011;4694;52.464;13.480;2024-03-06T02:51:29;44.85;;;21.67;;
9310;SDS011;4694;52.464;13.480;2024-03-06T02:53:55;45.35;;;23.98;;
9310;SDS011;4694;52.464;13.480;2024-03-06T02:56:23;47.92;;;25.58;;
9310;SDS011;4694;52.464;13.480;2024-03-06T02:58:51;42.22;;;22.55;;
9310;SDS011;4694;52.464;13.480;2024-03-06T03:01:18;37.75;;;22.08;;
9310;SDS011;4694;52.464;13.480;2024-03-06T03:03:44;44.08;;;21.77;;
9310;SDS011;4694;52.464;13.480;2024-03-06T03:06:12;48.95;;;26.23;;
9310;SDS011;4694;52.464;13.480;2024-03-06T03:08:38;43.42;;;22.38;;
9310;SDS011;4694;52.464;13.480;2024-03-06T03:11:05;39.80;;;21.23;;
9310;SDS011;4694;52.464;13.480;2024-03-06T03:13:34;39.28;;;21.42;;
9310;SDS011;4694;52.464;13.480;2024-03-06T03:16:01;43.70;;;23.45;;
9310;SDS011;4694;52.464;13.480;2024-03-06T03:18:28;40.03;;;21.83;;
9310;SDS011;4694;52.464;13.480;2024-03-06T03:20:55;44.20;;;22.00;;
9310;SDS011;4694;52.464;13.480;2024-03-06T03:23:22;45.33;;;22.52;;
9310;SDS011;4694;52.464;13.480;2024-03-06T03:25:48;47.33;;;22.05;;
9310;SDS011;4694;52.464;13.480;2024-03-06T03:28:15;38.65;;;22.67;;
9310;SDS011;4694;52.464;13.480;2024-03-06T03:30:43;42.83;;;22.73;;
9310;SDS011;4694;52.464;13.480;2024-03-06T03:33:10;46.75;;;22.48;;
9310;SDS011;4694;52.464;13.480;2024-03-06T03:35:37;46.55;;;23.80;;
9310;SDS011;4694;52.464;13.480;2024-03-06T03:38:04;51.92;;;25.38;;
9310;SDS011;4694;52.464;13.480;2024-03-06T03:40:31;49.53;;;22.33;;
9310;SDS011;4694;52.464;13.480;2024-03-06T03:42:58;43.05;;;22.42;;
9310;SDS011;4694;52.464;13.480;2024-03-06T03:45:31;44.15;;;23.13;;
9310;SDS011;4694;52.464;13.480;2024-03-06T03:47:59;44.00;;;24.50;;
9310;SDS011;4694;52.464;13.480;2024-03-06T03:50:27;40.08;;;21.50;;
9310;SDS011;4694;52.464;13.480;2024-03-06T03:52:54;35.40;;;20.77;;
9310;SDS011;4694;52.464;13.480;2024-03-06T03:55:22;47.28;;;24.83;;
9310;SDS011;4694;52.464;13.480;2024-03-06T03:57:49;45.00;;;23.33;;
9310;SDS011;4694;52.464;13.480;2024-03-06T04:00:16;47.95;;;22.02;;
9310;SDS011;4694;52.464;13.480;2024-03-06T04:02:43;34.50;;;22.10;;
9310;SDS011;4694;52.464;13.480;2024-03-06T04:05:11;49.95;;;25.23;;
9310;SDS011;4694;52.464;13.480;2024-03-06T04:07:38;46.25;;;21.13;;
9310;SDS011;4694;52.464;13.480;2024-03-06T04:10:05;40.95;;;22.33;;
9310;SDS011;4694;52.464;13.480;2024-03-06T04:12:35;51.50;;;23.73;;
9310;SDS011;4694;52.464;13.480;2024-03-06T04:15:02;47.30;;;23.38;;
9310;SDS011;4694;52.464;13.480;2024-03-06T04:17:29;43.55;;;24.40;;
9310;SDS011;4694;52.464;13.480;2024-03-06T04:19:56;46.92;;;24.15;;
9310;SDS011;4694;52.464;13.480;2024-03-06T04:22:23;46.47;;;22.15;;
9310;SDS011;4694;52.464;13.480;2024-03-06T04:24:51;42.78;;;23.10;;
9310;SDS011;4694;52.464;13.480;2024-03-06T04:27:17;45.80;;;24.92;;
9310;SDS011;4694;52.464;13.480;2024-03-06T04:29:44;47.38;;;23.77;;
9310;SDS011;4694;52.464;13.480;2024-03-06T04:32:11;57.53;;;25.83;;
9310;SDS011;4694;52.464;13.480;2024-03-06T04:34:37;41.92;;;21.92;;
9310;SDS011;4694;52.464;13.480;2024-03-06T04:37:04;44.00;;;22.27;;
9310;SDS011;4694;52.464;13.480;2024-03-06T04:39:33;45.17;;;23.20;;
9310;SDS011;4694;52.464;13.480;2024-03-06T04:41:59;43.78;;;23.83;;
9310;SDS011;4694;52.464;13.480;2024-03-06T04:44:27;54.65;;;24.48;;
9310;SDS011;4694;52.464;13.480;2024-03-06T04:46:54;37.80;;;20.23;;
9310;SDS011;4694;52.464;13.480;2024-03-06T04:49:21;41.30;;;21.25;;
9310;SDS011;4694;52.464;13.480;2024-03-06T04:51:48;44.42;;;22.27;;
9310;SDS011;4694;52.464;13.480;2024-03-06T04:54:14;42.45;;;21.55;;
9310;SDS011;4694;52.464;13.480;2024-03-06T04:56:42;43.53;;;22.58;;
9310;SDS011;4694;52.464;13.480;2024-03-06T04:59:09;45.67;;;22.52;;
9310;SDS011;4694;52.464;13.480;2024-03-06T05:01:35;50.83;;;23.85;;
9310;SDS011;4694;52.464;13.480;2024-03-06T05:04:02;51.53;;;24.80;;
9310;SDS011;4694;52.464;13.480;2024-03-06T05:06:29;51.38;;;21.92;;
9310;SDS011;4694;52.464;13.480;2024-03-06T05:08:55;39.80;;;22.27;;
9310;SDS011;4694;52.464;13.480;2024-03-06T05:11:22;40.90;;;23.52;;
9310;SDS011;4694;52.464;13.480;2024-03-06T05:13:50;46.00;;;22.17;;
9310;SDS011;4694;52.464;13.480;2024-03-06T05:16:17;50.50;;;23.35;;
9310;SDS011;4694;52.464;13.480;2024-03-06T05:18:43;59.15;;;24.25;;
9310;SDS011;4694;52.464;13.480;2024-03-06T05:21:10;53.53;;;25.67;;
9310;SDS011;4694;52.464;13.480;2024-03-06T05:23:37;44.13;;;22.40;;
9310;SDS011;4694;52.464;13.480;2024-03-06T05:26:04;43.95;;;23.52;;
9310;SDS011;4694;52.464;13.480;2024-03-06T05:28:31;48.78;;;22.55;;
9310;SDS011;4694;52.464;13.480;2024-03-06T05:30:59;41.83;;;23.13;;
9310;SDS011;4694;52.464;13.480;2024-03-06T05:33:26;54.83;;;24.70;;
9310;SDS011;4694;52.464;13.480;2024-03-06T05:35:55;44.13;;;23.02;;
9310;SDS011;4694;52.464;13.480;2024-03-06T05:38:21;48.08;;;22.65;;
9310;SDS011;4694;52.464;13.480;2024-03-06T05:40:48;60.08;;;26.77;;
9310;SDS011;4694;52.464;13.480;2024-03-06T05:43:15;45.83;;;23.85;;
9310;SDS011;4694;52.464;13.480;2024-03-06T05:45:41;51.00;;;24.10;;
9310;SDS011;4694;52.464;13.480;2024-03-06T05:48:09;54.30;;;25.60;;
9310;SDS011;4694;52.464;13.480;2024-03-06T05:50:36;58.20;;;26.08;;
9310;SDS011;4694;52.464;13.480;2024-03-06T05:53:03;53.10;;;25.13;;
9310;SDS011;4694;52.464;13.480;2024-03-06T05:55:30;57.33;;;27.25;;
9310;SDS011;4694;52.464;13.480;2024-03-06T05:57:57;52.83;;;26.35;;
9310;SDS011;4694;52.464;13.480;2024-03-06T06:00:24;47.53;;;24.75;;
9310;SDS011;4694;52.464;13.480;2024-03-06T06:02:51;47.60;;;25.10;;
9310;SDS011;4694;52.464;13.480;2024-03-06T06:05:19;51.40;;;25.27;;
9310;SDS011;4694;52.464;13.480;2024-03-06T06:07:47;47.30;;;23.98;;
9310;SDS011;4694;52.464;13.480;2024-03-06T06:10:15;49.80;;;28.42;;
9310;SDS011;4694;52.464;13.480;2024-03-06T06:12:41;55.13;;;25.23;;
9310;SDS011;4694;52.464;13.480;2024-03-06T06:15:08;49.85;;;24.83;;
9310;SDS011;4694;52.464;13.480;2024-03-06T06:17:36;53.55;;;24.85;;
9310;SDS011;4694;52.464;13.480;2024-03-06T06:20:03;52.85;;;24.85;;
9310;SDS011;4694;52.464;13.480;2024-03-06T06:22:35;52.55;;;26.15;;
9310;SDS011;4694;52.464;13.480;2024-03-06T06:25:03;55.97;;;27.30;;
9310;SDS011;4694;52.464;13.480;2024-03-06T06:27:30;56.83;;;26.38;;
9310;SDS011;4694;52.464;13.480;2024-03-06T06:29:57;52.40;;;26.75;;
9310;SDS011;4694;52.464;13.480;2024-03-06T06:32:24;51.85;;;25.25;;
9310;SDS011;4694;52.464;13.480;2024-03-06T06:34:52;58.58;;;26.52;;
9310;SDS011;4694;52.464;13.480;2024-03-06T06:37:19;56.75;;;24.42;;
9310;SDS011;4694;52.464;13.480;2024-03-06T06:39:50;52.53;;;27.52;;
9310;SDS011;4694;52.464;13.480;2024-03-06T06:42:17;55.42;;;26.05;;
9310;SDS011;4694;52.464;13.480;2024-03-06T06:44:44;58.42;;;26.95;;
9310;SDS011;4694;52.464;13.480;2024-03-06T06:47:11;51.75;;;24.52;;
9310;SDS011;4694;52.464;13.480;2024-03-06T06:49:38;49.83;;;25.80;;
9310;SDS011;4694;52.464;13.480;2024-03-06T06:52:05;52.50;;;25.23;;
9310;SDS011;4694;52.464;13.480;2024-03-06T06:54:32;48.83;;;24.25;;
9310;SDS011;4694;52.464;13.480;2024-03-06T06:57:00;53.75;;;25.45;;
9310;SDS011;4694;52.464;13.480;2024-03-06T06:59:28;47.45;;;22.45;;
9310;SDS011;4694;52.464;13.480;2024-03-06T07:01:54;43.17;;;22.02;;
9310;SDS011;4694;52.464;13.480;2024-03-06T07:04:21;44.55;;;22.35;;
9310;SDS011;4694;52.464;13.480;2024-03-06T07:06:49;49.30;;;23.50;;
9310;SDS011;4694;52.464;13.480;2024-03-06T07:09:16;43.83;;;22.40;;
9310;SDS011;4694;52.464;13.480;2024-03-06T07:11:43;44.85;;;22.75;;
9310;SDS011;4694;52.464;13.480;2024-03-06T07:14:11;42.40;;;21.33;;
9310;SDS011;4694;52.464;13.480;2024-03-06T07:16:41;43.17;;;23.27;;
9310;SDS011;4694;52.464;13.480;2024-03-06T07:19:09;42.72;;;20.67;;
9310;SDS011;4694;52.464;13.480;2024-03-06T07:21:36;35.83;;;20.60;;
9310;SDS011;4694;52.464;13.480;2024-03-06T07:24:03;39.50;;;20.40;;
9310;SDS011;4694;52.464;13.480;2024-03-06T07:26:31;33.17;;;19.10;;
9310;SDS011;4694;52.464;13.480;2024-03-06T07:29:00;34.20;;;17.80;;
9310;SDS011;4694;52.464;13.480;2024-03-06T07:31:28;36.92;;;18.52;;
9310;SDS011;4694;52.464;13.480;2024-03-06T07:33:57;35.08;;;20.17;;
9310;SDS011;4694;52.464;13.480;2024-03-06T07:36:23;34.35;;;18.75;;
9310;SDS011;4694;52.464;13.480;2024-03-06T07:38:50;34.92;;;17.27;;
9310;SDS011;4694;52.464;13.480;2024-03-06T07:41:20;33.28;;;19.35;;
9310;SDS011;4694;52.464;13.480;2024-03-06T07:43:47;36.47;;;17.95;;
9310;SDS011;4694;52.464;13.480;2024-03-06T07:46:13;28.17;;;17.70;;
9310;SDS011;4694;52.464;13.480;2024-03-06T07:48:42;36.95;;;19.55;;
9310;SDS011;4694;52.464;13.480;2024-03-06T07:51:09;27.80;;;17.33;;
9310;SDS011;4694;52.464;13.480;2024-03-06T07:53:36;28.67;;;15.70;;
9310;SDS011;4694;52.464;13.480;2024-03-06T07:56:03;24.15;;;15.10;;
9310;SDS011;4694;52.464;13.480;2024-03-06T07:58:30;27.15;;;16.05;;
9310;SDS011;4694;52.464;13.480;2024-03-06T08:00:59;25.85;;;15.82;;
9310;SDS011;4694;52.464;13.480;2024-03-06T08:03:26;23.52;;;14.15;;
9310;SDS011;4694;52.464;13.480;2024-03-06T08:05:54;24.38;;;15.10;;
9310;SDS011;4694;52.464;13.480;2024-03-06T08:08:21;31.55;;;19.08;;
9310;SDS011;4694;52.464;13.480;2024-03-06T08:10:49;26.08;;;16.23;;
9310;SDS011;4694;52.464;13.480;2024-03-06T08:13:15;24.25;;;15.43;;
9310;SDS011;4694;52.464;13.480;2024-03-06T08:15:44;24.25;;;16.02;;
9310;SDS011;4694;52.464;13.480;2024-03-06T08:18:11;24.35;;;14.90;;
9310;SDS011;4694;52.464;13.480;2024-03-06T08:20:38;22.38;;;16.35;;
9310;SDS011;4694;52.464;13.480;2024-03-06T08:23:06;23.13;;;14.80;;
9310;SDS011;4694;52.464;13.480;2024-03-06T08:25:33;25.17;;;15.63;;
9310;SDS011;4694;52.464;13.480;2024-03-06T08:28:00;20.73;;;14.50;;
9310;SDS011;4694;52.464;13.480;2024-03-06T08:30:28;23.63;;;14.93;;
9310;SDS011;4694;52.464;13.480;2024-03-06T08:32:56;25.52;;;15.45;;
9310;SDS011;4694;52.464;13.480;2024-03-06T08:35:23;21.17;;;13.55;;
9310;SDS011;4694;52.464;13.480;2024-03-06T08:37:50;21.23;;;15.15;;
9310;SDS011;4694;52.464;13.480;2024-03-06T08:40:18;26.75;;;15.75;;
9310;SDS011;4694;52.464;13.480;2024-03-06T08:42:45;26.00;;;16.90;;
9310;SDS011;4694;52.464;13.480;2024-03-06T08:45:13;23.25;;;15.52;;
9310;SDS011;4694;52.464;13.480;2024-03-06T08:47:40;22.10;;;14.85;;
9310;SDS011;4694;52.464;13.480;2024-03-06T08:50:08;22.70;;;15.05;;
9310;SDS011;4694;52.464;13.480;2024-03-06T08:52:36;23.63;;;15.07;;
9310;SDS011;4694;52.464;13.480;2024-03-06T08:55:03;21.17;;;14.85;;
9310;SDS011;4694;52.464;13.480;2024-03-06T08:57:34;22.60;;;16.15;;
9310;SDS011;4694;52.464;13.480;2024-03-06T09:00:01;22.35;;;13.55;;
9310;SDS011;4694;52.464;13.480;2024-03-06T09:02:33;24.20;;;13.82;;
9310;SDS011;4694;52.464;13.480;2024-03-06T09:05:01;18.20;;;12.80;;
9310;SDS011;4694;52.464;13.480;2024-03-06T09:07:29;23.13;;;14.57;;
9310;SDS011;4694;52.464;13.480;2024-03-06T09:09:56;20.88;;;12.98;;
9310;SDS011;4694;52.464;13.480;2024-03-06T09:12:23;26.02;;;13.30;;
9310;SDS011;4694;52.464;13.480;2024-03-06T09:14:51;22.15;;;12.98;;
9310;SDS011;4694;52.464;13.480;2024-03-06T09:17:17;19.60;;;13.55;;
9310;SDS011;4694;52.464;13.480;2024-03-06T09:19:44;17.65;;;12.43;;
9310;SDS011;4694;52.464;13.480;2024-03-06T09:22:11;19.17;;;12.32;;
9310;SDS011;4694;52.464;13.480;2024-03-06T09:24:37;14.10;;;9.32;;
9310;SDS011;4694;52.464;13.480;2024-03-06T09:27:04;14.57;;;10.05;;
9310;SDS011;4694;52.464;13.480;2024-03-06T09:29:31;14.77;;;10.18;;
9310;SDS011;4694;52.464;13.480;2024-03-06T09:31:59;16.75;;;10.30;;
9310;SDS011;4694;52.464;13.480;2024-03-06T09:34:26;15.90;;;9.88;;
9310;SDS011;4694;52.464;13.480;2024-03-06T09:36:52;16.70;;;9.68;;
9310;SDS011;4694;52.464;13.480;2024-03-06T09:39:19;16.95;;;10.43;;
9310;SDS011;4694;52.464;13.480;2024-03-06T09:41:48;15.15;;;10.20;;
9310;SDS011;4694;52.464;13.480;2024-03-06T09:44:15;15.55;;;10.00;;
9310;SDS011;4694;52.464;13.480;2024-03-06T09:46:42;15.93;;;10.02;;
9310;SDS011;4694;52.464;13.480;2024-03-06T09:49:11;17.65;;;10.93;;
9310;SDS011;4694;52.464;13.480;2024-03-06T09:51:41;16.25;;;10.50;;
9310;SDS011;4694;52.464;13.480;2024-03-06T09:56:38;13.13;;;8.60;;
9310;SDS011;4694;52.464;13.480;2024-03-06T09:59:05;15.23;;;9.05;;
9310;SDS011;4694;52.464;13.480;2024-03-06T10:01:31;15.38;;;10.45;;
9310;SDS011;4694;52.464;13.480;2024-03-06T10:03:59;16.05;;;9.48;;
9310;SDS011;4694;52.464;13.480;2024-03-06T10:06:27;11.05;;;8.73;;
9310;SDS011;4694;52.464;13.480;2024-03-06T10:09:02;14.63;;;9.60;;
9310;SDS011;4694;52.464;13.480;2024-03-06T10:11:38;11.82;;;8.35;;
9310;SDS011;4694;52.464;13.480;2024-03-06T10:14:08;12.93;;;9.13;;
9310;SDS011;4694;52.464;13.480;2024-03-06T10:16:36;11.18;;;7.82;;
9310;SDS011;4694;52.464;13.480;2024-03-06T10:19:14;12.10;;;8.73;;
9310;SDS011;4694;52.464;13.480;2024-03-06T10:21:43;10.68;;;8.07;;
9310;SDS011;4694;52.464;13.480;2024-03-06T10:24:16;9.32;;;7.43;;
9310;SDS011;4694;52.464;13.480;2024-03-06T10:26:45;12.43;;;8.77;;
9310;SDS011;4694;52.464;13.480;2024-03-06T10:29:14;10.73;;;7.88;;
9310;SDS011;4694;52.464;13.480;2024-03-06T10:31:47;9.27;;;7.15;;
9310;SDS011;4694;52.464;13.480;2024-03-06T10:34:25;9.95;;;8.50;;
9310;SDS011;4694;52.464;13.480;2024-03-06T10:36:54;8.35;;;6.88;;
9310;SDS011;4694;52.464;13.480;2024-03-06T10:39:22;8.30;;;7.50;;
9310;SDS011;4694;52.464;13.480;2024-03-06T10:41:51;12.05;;;7.00;;
9310;SDS011;4694;52.464;13.480;2024-03-06T10:44:20;7.80;;;6.38;;
9310;SDS011;4694;52.464;13.480;2024-03-06T10:46:48;9.70;;;6.53;;
9310;SDS011;4694;52.464;13.480;2024-03-06T10:49:22;9.90;;;6.53;;
9310;SDS011;4694;52.464;13.480;2024-03-06T10:51:49;8.27;;;7.05;;
9310;SDS011;4694;52.464;13.480;2024-03-06T10:54:21;8.60;;;6.85;;
9310;SDS011;4694;52.464;13.480;2024-03-06T10:56:49;8.77;;;7.07;;
9310;SDS011;4694;52.464;13.480;2024-03-06T10:59:17;9.05;;;7.55;;
9310;SDS011;4694;52.464;13.480;2024-03-06T11:01:46;13.23;;;8.15;;
9310;SDS011;4694;52.464;13.480;2024-03-06T11:04:13;9.55;;;7.72;;
9310;SDS011;4694;52.464;13.480;2024-03-06T11:06:41;9.43;;;7.97;;
9310;SDS011;4694;52.464;13.480;2024-03-06T11:09:07;9.73;;;8.18;;
9310;SDS011;4694;52.464;13.480;2024-03-06T11:11:48;11.65;;;7.97;;
9310;SDS011;4694;52.464;13.480;2024-03-06T11:14:16;10.32;;;7.63;;
9310;SDS011;4694;52.464;13.480;2024-03-06T11:16:56;11.20;;;6.65;;
9310;SDS011;4694;52.464;13.480;2024-03-06T11:19:28;10.27;;;7.90;;
9310;SDS011;4694;52.464;13.480;2024-03-06T11:21:55;10.45;;;7.90;;
9310;SDS011;4694;52.464;13.480;2024-03-06T11:24:24;10.15;;;7.22;;
9310;SDS011;4694;52.464;13.480;2024-03-06T11:27:00;8.82;;;7.10;;
9310;SDS011;4694;52.464;13.480;2024-03-06T11:32:36;10.32;;;7.07;;
9310;SDS011;4694;52.464;13.480;2024-03-06T11:35:03;11.73;;;7.68;;
9310;SDS011;4694;52.464;13.480;2024-03-06T11:37:33;8.20;;;7.05;;
9310;SDS011;4694;52.464;13.480;2024-03-06T11:40:01;9.25;;;8.20;;
9310;SDS011;4694;52.464;13.480;2024-03-06T11:42:35;10.65;;;8.38;;
9310;SDS011;4694;52.464;13.480;2024-03-06T11:45:11;12.20;;;8.27;;
9310;SDS011;4694;52.464;13.480;2024-03-06T11:47:57;13.65;;;8.85;;
9310;SDS011;4694;52.464;13.480;2024-03-06T11:50:25;13.18;;;7.65;;
9310;SDS011;4694;52.464;13.480;2024-03-06T11:52:54;13.30;;;8.75;;
9310;SDS011;4694;52.464;13.480;2024-03-06T11:55:21;13.00;;;8.57;;
9310;SDS011;4694;52.464;13.480;2024-03-06T11:57:51;11.52;;;8.90;;
9310;SDS011;4694;52.464;13.480;2024-03-06T12:00:20;9.68;;;7.15;;
9310;SDS011;4694;52.464;13.480;2024-03-06T12:05:16;8.63;;;6.35;;
9310;SDS011;4694;52.464;13.480;2024-03-06T12:07:46;10.07;;;7.43;;
9310;SDS011;4694;52.464;13.480;2024-03-06T12:10:13;10.90;;;7.03;;
9310;SDS011;4694;52.464;13.480;2024-03-06T12:12:40;8.38;;;7.57;;
9310;SDS011;4694;52.464;13.480;2024-03-06T12:15:10;10.40;;;8.82;;
9310;SDS011;4694;52.464;13.480;2024-03-06T12:17:41;10.30;;;8.65;;
9310;SDS011;4694;52.464;13.480;2024-03-06T12:20:11;10.05;;;8.63;;
9310;SDS011;4694;52.464;13.480;2024-03-06T12:22:43;12.02;;;10.02;;
9310;SDS011;4694;52.464;13.480;2024-03-06T12:25:10;11.85;;;10.52;;
9310;SDS011;4694;52.464;13.480;2024-03-06T12:27:44;12.82;;;9.77;;
9310;SDS011;4694;52.464;13.480;2024-03-06T12:30:13;19.00;;;13.90;;
9310;SDS011;4694;52.464;13.480;2024-03-06T12:32:44;14.65;;;11.68;;
9310;SDS011;4694;52.464;13.480;2024-03-06T12:35:11;14.13;;;9.95;;
9310;SDS011;4694;52.464;13.480;2024-03-06T12:37:38;15.68;;;11.75;;
9310;SDS011;4694;52.464;13.480;2024-03-06T12:40:05;12.52;;;10.88;;
9310;SDS011;4694;52.464;13.480;2024-03-06T12:42:38;15.60;;;10.80;;
9310;SDS011;4694;52.464;13.480;2024-03-06T12:45:07;28.73;;;14.80;;
9310;SDS011;4694;52.464;13.480;2024-03-06T12:47:36;13.40;;;10.88;;
9310;SDS011;4694;52.464;13.480;2024-03-06T12:50:03;14.90;;;11.02;;
9310;SDS011;4694;52.464;13.480;2024-03-06T12:52:32;11.95;;;9.88;;
9310;SDS011;4694;52.464;13.480;2024-03-06T12:55:00;13.80;;;10.50;;
9310;SDS011;4694;52.464;13.480;2024-03-06T12:57:26;11.27;;;9.32;;
9310;SDS011;4694;52.464;13.480;2024-03-06T12:59:53;15.65;;;11.77;;
9310;SDS011;4694;52.464;13.480;2024-03-06T13:02:20;14.23;;;11.52;;
9310;SDS011;4694;52.464;13.480;2024-03-06T13:04:49;20.23;;;11.52;;
9310;SDS011;4694;52.464;13.480;2024-03-06T13:07:16;14.85;;;11.40;;
9310;SDS011;4694;52.464;13.480;2024-03-06T13:09:43;14.32;;;12.82;;
9310;SDS011;4694;52.464;13.480;2024-03-06T13:12:09;17.05;;;12.32;;
9310;SDS011;4694;52.464;13.480;2024-03-06T13:14:38;14.93;;;12.68;;
9310;SDS011;4694;52.464;13.480;2024-03-06T13:17:05;15.48;;;12.68;;
9310;SDS011;4694;52.464;13.480;2024-03-06T13:19:33;15.20;;;11.25;;
9310;SDS011;4694;52.464;13.480;2024-03-06T13:22:02;16.90;;;11.52;;
9310;SDS011;4694;52.464;13.480;2024-03-06T13:24:32;20.13;;;12.02;;
9310;SDS011;4694;52.464;13.480;2024-03-06T13:26:58;14.55;;;11.13;;
9310;SDS011;4694;52.464;13.480;2024-03-06T13:29:26;17.77;;;12.82;;
9310;SDS011;4694;52.464;13.480;2024-03-06T13:31:53;16.85;;;13.13;;
9310;SDS011;4694;52.464;13.480;2024-03-06T13:34:20;17.15;;;13.27;;
9310;SDS011;4694;52.464;13.480;2024-03-06T13:36:47;19.23;;;13.32;;
9310;SDS011;4694;52.464;13.480;2024-03-06T13:39:15;18.95;;;13.70;;
9310;SDS011;4694;52.464;13.480;2024-03-06T13:41:42;21.92;;;13.85;;
9310;SDS011;4694;52.464;13.480;2024-03-06T13:44:09;30.20;;;18.17;;
9310;SDS011;4694;52.464;13.480;2024-03-06T13:46:35;28.58;;;17.75;;
9310;SDS011;4694;52.464;13.480;2024-03-06T13:49:02;35.15;;;19.85;;
9310;SDS011;4694;52.464;13.480;2024-03-06T13:51:29;32.60;;;18.88;;
9310;SDS011;4694;52.464;13.480;2024-03-06T13:53:55;29.60;;;17.10;;
9310;SDS011;4694;52.464;13.480;2024-03-06T13:56:23;32.40;;;19.42;;
9310;SDS011;4694;52.464;13.480;2024-03-06T13:58:50;32.78;;;18.60;;
9310;SDS011;4694;52.464;13.480;2024-03-06T14:01:16;34.88;;;21.20;;
9310;SDS011;4694;52.464;13.480;2024-03-06T14:03:43;31.98;;;16.75;;
9310;SDS011;4694;52.464;13.480;2024-03-06T14:06:12;25.70;;;15.25;;
9310;SDS011;4694;52.464;13.480;2024-03-06T14:08:38;23.17;;;14.57;;
9310;SDS011;4694;52.464;13.480;2024-03-06T14:11:06;22.55;;;13.25;;
9310;SDS011;4694;52.464;13.480;2024-03-06T14:13:34;23.10;;;13.65;;
9310;SDS011;4694;52.464;13.480;2024-03-06T14:16:02;24.05;;;13.48;;
9310;SDS011;4694;52.464;13.480;2024-03-06T14:18:29;21.92;;;11.95;;
9310;SDS011;4694;52.464;13.480;2024-03-06T14:20:55;22.98;;;13.15;;
9310;SDS011;4694;52.464;13.480;2024-03-06T14:23:22;19.83;;;11.70;;
9310;SDS011;4694;52.464;13.480;2024-03-06T14:25:49;18.33;;;10.77;;
9310;SDS011;4694;52.464;13.480;2024-03-06T14:28:15;20.15;;;11.65;;
9310;SDS011;4694;52.464;13.480;2024-03-06T14:30:43;17.90;;;11.23;;
9310;SDS011;4694;52.464;13.480;2024-03-06T14:33:10;21.30;;;12.85;;
9310;SDS011;4694;52.464;13.480;2024-03-06T14:35:37;23.77;;;14.60;;
9310;SDS011;4694;52.464;13.480;2024-03-06T14:38:03;34.85;;;16.75;;
9310;SDS011;4694;52.464;13.480;2024-03-06T14:40:30;41.80;;;21.13;;
9310;SDS011;4694;52.464;13.480;2024-03-06T14:42:58;40.28;;;18.77;;
9310;SDS011;4694;52.464;13.480;2024-03-06T14:45:26;32.35;;;16.08;;
9310;SDS011;4694;52.464;13.480;2024-03-06T14:47:54;41.78;;;16.95;;
9310;SDS011;4694;52.464;13.480;2024-03-06T14:50:21;35.28;;;17.25;;